Scotstown, Canada
Current Conditions -  °F | °C
As of 9:00 PM on Friday 19 Dec 2014 (Local Time) from CYSC Reporting Station
Clear Clear  
Wind Chill:   Ceiling: Unl
Heat Index:   Visibility: 9mi
Dew Point:   Wind: 3mph
Humidity: 92%   Direction: 120°ESE
Pressure: 30.17"   Gusts: NA
Location:  45.53°N, 71.28°W
Report Text: CYSC 200200Z AUTO 12003KT 9SM CLR M13/M14 A3017 RMK SLP234
Loading
Personal Weather Stations






























Interactive Weather Map New forecast layout! Learn more

10-Day Weather Forecast

Advertisements
Track Severe Weather on mobile